createdAt,value
2022-12-10T00:00:21.449Z,12.82
2022-12-10T00:03:26.991Z,12.98
2022-12-10T00:06:34.708Z,13.27
2022-12-10T00:09:42.899Z,13.38
2022-12-10T00:12:48.514Z,13.32
2022-12-10T00:15:54.260Z,12.18
2022-12-10T00:19:00.157Z,12.13
2022-12-10T00:22:05.180Z,12.73
2022-12-10T00:25:13.467Z,11.88
2022-12-10T00:28:19.082Z,12.38
2022-12-10T00:31:25.116Z,12.07
2022-12-10T00:34:30.321Z,10.93
2022-12-10T00:37:36.655Z,11.27
2022-12-10T00:40:45.083Z,10.85
2022-12-10T00:43:51.014Z,12.20
2022-12-10T00:46:56.263Z,11.07
2022-12-10T00:50:01.944Z,11.48
2022-12-10T00:53:08.113Z,11.60
2022-12-10T00:56:16.939Z,11.45
2022-12-10T00:59:22.612Z,11.50
2022-12-10T01:02:27.928Z,10.15
2022-12-10T01:05:33.257Z,10.77
2022-12-10T01:08:38.726Z,10.00
2022-12-10T01:11:48.127Z,10.32
2022-12-10T01:14:53.488Z,10.45
2022-12-10T01:17:59.199Z,11.75
2022-12-10T01:21:05.831Z,11.88
2022-12-10T01:24:11.606Z,10.18
2022-12-10T01:27:19.418Z,11.27
2022-12-10T01:30:24.597Z,10.85
2022-12-10T01:33:30.107Z,10.05
2022-12-10T01:36:36.867Z,10.73
2022-12-10T01:39:42.255Z,10.93
2022-12-10T01:42:50.487Z,10.32
2022-12-10T01:45:56.004Z,10.60
2022-12-10T01:49:02.340Z,11.65
2022-12-10T01:52:09.393Z,12.00
2022-12-10T01:55:29.435Z,12.50
2022-12-10T01:58:37.630Z,11.15
2022-12-10T02:01:46.134Z,12.10
2022-12-10T02:08:01.392Z,12.10
2022-12-10T02:11:17.570Z,11.23
2022-12-10T02:14:28.015Z,11.05
2022-12-10T02:17:36.010Z,11.18
2022-12-10T02:20:43.926Z,12.07
2022-12-10T02:23:51.545Z,11.60
2022-12-10T02:27:00.997Z,12.83
2022-12-10T02:30:09.843Z,11.52
2022-12-10T02:33:16.015Z,11.23
2022-12-10T02:36:23.652Z,11.88
2022-12-10T02:39:30.695Z,12.30
2022-12-10T02:42:39.051Z,11.68
2022-12-10T02:45:48.698Z,11.60
2022-12-10T02:48:55.648Z,11.57
2022-12-10T02:52:01.038Z,10.57
2022-12-10T02:55:06.979Z,10.60
2022-12-10T02:58:16.323Z,11.35
2022-12-10T03:01:30.072Z,10.98
2022-12-10T03:04:37.567Z,11.02
2022-12-10T03:07:45.786Z,10.65
2022-12-10T03:13:58.935Z,10.00
2022-12-10T03:17:07.841Z,10.43
2022-12-10T03:20:15.323Z,10.25
2022-12-10T03:23:22.747Z,10.63
2022-12-10T03:26:28.851Z,9.52
2022-12-10T03:29:36.214Z,11.07
2022-12-10T03:32:44.234Z,13.43
2022-12-10T03:35:49.671Z,12.85
2022-12-10T03:38:55.573Z,12.40
2022-12-10T03:42:01.071Z,12.68
2022-12-10T03:45:07.362Z,10.77
2022-12-10T03:48:15.711Z,12.80
2022-12-10T03:51:20.766Z,12.10
2022-12-10T03:54:26.579Z,14.43
2022-12-10T03:57:32.019Z,16.20
2022-12-10T04:00:37.397Z,16.80
2022-12-10T04:03:45.952Z,15.77
2022-12-10T04:06:51.459Z,16.00
2022-12-10T04:09:56.741Z,16.25
2022-12-10T04:13:14.444Z,17.17
2022-12-10T04:16:31.556Z,18.33
2022-12-10T04:19:40.138Z,18.08
2022-12-10T04:22:57.718Z,16.50
2022-12-10T04:26:15.524Z,14.50
2022-12-10T04:29:21.413Z,12.90
2022-12-10T04:32:27.745Z,13.23
2022-12-10T04:35:36.194Z,11.98
2022-12-10T04:38:41.420Z,12.32
2022-12-10T04:41:48.073Z,12.07
2022-12-10T04:44:53.692Z,12.90
2022-12-10T04:47:59.170Z,11.82
2022-12-10T04:51:07.509Z,12.43
2022-12-10T04:54:13.329Z,12.15
2022-12-10T04:57:18.588Z,13.88
2022-12-10T05:00:23.761Z,14.38
2022-12-10T05:03:29.114Z,13.25
2022-12-10T05:06:37.492Z,13.93
2022-12-10T05:09:44.267Z,14.60
2022-12-10T05:12:49.563Z,13.20
2022-12-10T05:15:55.087Z,13.85
2022-12-10T05:19:00.787Z,14.55
2022-12-10T05:22:22.216Z,15.30
2022-12-10T05:25:27.311Z,18.77
2022-12-10T05:28:33.058Z,17.73
2022-12-10T05:31:38.663Z,19.05
2022-12-10T05:34:44.004Z,16.35
2022-12-10T05:37:52.236Z,21.23
2022-12-10T05:40:57.780Z,21.50
2022-12-10T05:44:04.111Z,20.77
2022-12-10T05:47:09.905Z,20.77
2022-12-10T05:50:15.682Z,23.52
2022-12-10T05:53:24.224Z,22.42
2022-12-10T05:56:30.164Z,23.52
2022-12-10T05:59:35.438Z,22.95
2022-12-10T06:02:40.731Z,24.25
2022-12-10T06:05:46.109Z,25.15
2022-12-10T06:08:53.884Z,22.92
2022-12-10T06:11:59.035Z,25.02
2022-12-10T06:15:04.520Z,24.80
2022-12-10T06:18:10.080Z,24.75
2022-12-10T06:21:17.959Z,25.40
2022-12-10T06:24:26.315Z,25.02
2022-12-10T06:27:33.691Z,26.35
2022-12-10T06:30:39.638Z,24.37
2022-12-10T06:33:45.621Z,25.70
2022-12-10T06:36:51.106Z,23.63
2022-12-10T06:39:58.947Z,24.23
2022-12-10T06:43:04.057Z,25.65
2022-12-10T06:46:10.481Z,23.92
2022-12-10T06:49:15.915Z,26.70
2022-12-10T06:52:21.287Z,25.58
2022-12-10T06:55:29.474Z,25.13
2022-12-10T06:58:37.439Z,26.65
2022-12-10T07:01:42.720Z,26.65
2022-12-10T07:04:49.903Z,24.55
2022-12-10T07:07:55.262Z,25.52
2022-12-10T07:11:03.157Z,26.20
2022-12-10T07:14:08.763Z,26.10
2022-12-10T07:17:14.006Z,25.98
2022-12-10T07:20:20.086Z,24.38
2022-12-10T07:23:25.865Z,24.73
2022-12-10T07:26:36.506Z,24.48
2022-12-10T07:29:41.724Z,25.85
2022-12-10T07:32:47.212Z,25.75
2022-12-10T07:35:52.435Z,24.55
2022-12-10T07:38:58.316Z,24.55
2022-12-10T07:42:06.316Z,25.77
2022-12-10T07:45:16.621Z,26.10
2022-12-10T07:48:22.828Z,25.88
2022-12-10T07:51:28.202Z,26.10
2022-12-10T07:54:33.440Z,25.92
2022-12-10T07:57:41.419Z,26.15
2022-12-10T08:00:46.771Z,26.13
2022-12-10T08:03:52.120Z,25.23
2022-12-10T08:06:58.261Z,28.40
2022-12-10T08:10:03.994Z,25.33
2022-12-10T08:13:12.596Z,27.55
2022-12-10T08:16:19.642Z,29.50
2022-12-10T08:19:31.381Z,26.58
2022-12-10T08:22:37.800Z,26.17
2022-12-10T08:25:42.980Z,26.73
2022-12-10T08:28:51.622Z,29.77
2022-12-10T08:31:57.223Z,27.33
2022-12-10T08:35:02.823Z,29.75
2022-12-10T08:38:08.317Z,28.05
2022-12-10T08:41:14.470Z,29.35
2022-12-10T08:44:22.442Z,28.60
2022-12-10T08:47:27.562Z,29.85
2022-12-10T08:50:33.009Z,30.55
2022-12-10T08:53:38.691Z,29.70
2022-12-10T08:56:44.148Z,31.55
2022-12-10T08:59:51.931Z,31.08
2022-12-10T09:02:57.053Z,31.42
2022-12-10T09:06:05.562Z,29.38
2022-12-10T09:09:10.732Z,34.05
2022-12-10T09:12:16.103Z,33.38
2022-12-10T09:15:24.113Z,32.50
2022-12-10T09:18:29.766Z,32.35
2022-12-10T09:21:35.622Z,32.95
2022-12-10T09:24:41.030Z,32.80
2022-12-10T09:27:46.877Z,33.75
2022-12-10T09:31:01.499Z,33.38
2022-12-10T09:34:07.098Z,33.35
2022-12-10T09:37:13.149Z,32.00
2022-12-10T09:40:19.112Z,32.05
2022-12-10T09:43:27.576Z,32.58
2022-12-10T09:46:43.345Z,34.17
2022-12-10T09:49:54.538Z,32.55
2022-12-10T09:53:02.573Z,34.72
2022-12-10T09:56:08.517Z,34.25
2022-12-10T09:59:18.029Z,32.53
2022-12-10T10:02:28.818Z,32.47
2022-12-10T10:05:36.013Z,34.00
2022-12-10T10:08:44.645Z,34.70
2022-12-10T10:11:50.496Z,35.13
2022-12-10T10:14:56.141Z,32.05
2022-12-10T10:18:06.662Z,35.80
2022-12-10T10:21:28.604Z,33.10
2022-12-10T10:24:38.094Z,32.30
2022-12-10T10:27:43.283Z,32.72
2022-12-10T10:30:48.634Z,32.85
2022-12-10T10:33:59.604Z,33.60
2022-12-10T10:37:08.274Z,32.33
2022-12-10T10:40:22.452Z,31.88
2022-12-10T10:43:29.221Z,32.80
2022-12-10T10:46:39.871Z,33.40
2022-12-10T10:49:48.555Z,32.10
2022-12-10T10:52:54.091Z,32.08
2022-12-10T10:56:01.146Z,32.33
2022-12-10T10:59:08.499Z,33.65
2022-12-10T11:02:21.764Z,32.47
2022-12-10T11:05:35.729Z,34.00
2022-12-10T11:08:43.662Z,31.02
2022-12-10T11:11:54.225Z,32.40
2022-12-10T11:14:59.491Z,31.70
2022-12-10T11:18:05.250Z,32.63
2022-12-10T11:21:23.119Z,31.90
2022-12-10T11:24:29.556Z,32.72
2022-12-10T11:27:42.594Z,31.63
2022-12-10T11:30:53.594Z,31.75
2022-12-10T11:34:03.022Z,30.08
2022-12-10T11:37:14.501Z,31.30
2022-12-10T11:40:34.876Z,29.30
2022-12-10T11:43:49.737Z,28.52
2022-12-10T11:47:02.833Z,31.85
2022-12-10T11:50:17.115Z,29.25
2022-12-10T11:53:39.869Z,27.38
2022-12-10T11:56:47.675Z,30.70
2022-12-10T12:00:06.659Z,28.25
2022-12-10T12:03:19.467Z,30.45
2022-12-10T12:06:36.443Z,28.25
2022-12-10T12:09:48.383Z,28.52
2022-12-10T12:12:58.667Z,30.63
2022-12-10T12:16:05.455Z,29.85
2022-12-10T12:19:16.005Z,29.35
2022-12-10T12:22:28.170Z,29.17
2022-12-10T12:25:38.803Z,29.83
2022-12-10T12:28:45.915Z,28.85
2022-12-10T12:31:54.262Z,29.33
2022-12-10T12:35:02.787Z,31.23
2022-12-10T12:38:12.904Z,27.98
2022-12-10T12:41:25.778Z,29.40
2022-12-10T12:44:33.877Z,27.30
2022-12-10T12:47:44.011Z,29.10
2022-12-10T12:50:50.540Z,29.27
2022-12-10T12:53:55.871Z,29.58
2022-12-10T12:57:10.389Z,28.15
2022-12-10T13:00:19.381Z,30.17
2022-12-10T13:03:32.195Z,28.17
2022-12-10T13:06:38.351Z,28.25
2022-12-10T13:09:47.173Z,27.77
2022-12-10T13:12:56.501Z,27.42
2022-12-10T13:16:16.248Z,25.95
2022-12-10T13:19:28.987Z,27.88
2022-12-10T13:22:52.004Z,26.25
2022-12-10T13:26:00.989Z,27.38
2022-12-10T13:29:27.913Z,25.20
2022-12-10T13:32:50.643Z,26.23
2022-12-10T13:36:08.741Z,25.58
2022-12-10T13:39:16.897Z,24.38
2022-12-10T13:42:51.939Z,24.50
2022-12-10T13:46:13.784Z,24.05
2022-12-10T13:49:22.575Z,22.27
2022-12-10T13:52:31.059Z,23.70
2022-12-10T13:58:47.063Z,22.33
2022-12-10T14:01:55.014Z,22.50
2022-12-10T14:05:15.580Z,24.88
2022-12-10T14:08:27.032Z,25.70
2022-12-10T14:11:37.627Z,22.05
2022-12-10T14:14:44.391Z,22.70
2022-12-10T14:17:50.579Z,22.60
2022-12-10T14:20:57.254Z,22.83
2022-12-10T14:24:05.208Z,22.23
2022-12-10T14:27:16.038Z,21.55
2022-12-10T14:30:22.994Z,19.85
2022-12-10T14:33:28.870Z,19.10
2022-12-10T14:36:35.616Z,21.17
2022-12-10T14:39:44.461Z,21.52
2022-12-10T14:42:50.429Z,20.85
2022-12-10T14:45:57.429Z,18.95
2022-12-10T14:49:02.980Z,19.10
2022-12-10T14:52:13.335Z,18.23
2022-12-10T14:55:23.658Z,18.90
2022-12-10T14:58:31.610Z,18.67
2022-12-10T15:01:38.860Z,17.42
2022-12-10T15:04:46.096Z,18.92
2022-12-10T15:07:55.687Z,18.58
2022-12-10T15:11:04.523Z,18.08
2022-12-10T15:14:09.987Z,19.00
2022-12-10T15:17:30.085Z,19.45
2022-12-10T15:20:40.339Z,17.95
2022-12-10T15:23:46.608Z,17.85
2022-12-10T15:26:55.149Z,18.38
2022-12-10T15:30:00.454Z,16.73
2022-12-10T15:33:06.149Z,17.30
2022-12-10T15:36:18.637Z,16.27
2022-12-10T15:39:25.502Z,16.88
2022-12-10T15:42:43.827Z,16.38
2022-12-10T15:45:52.926Z,16.23
2022-12-10T15:48:58.369Z,15.35
2022-12-10T15:52:03.733Z,15.95
2022-12-10T15:55:10.374Z,15.13
2022-12-10T15:58:19.002Z,14.20
2022-12-10T16:04:30.436Z,22.80
2022-12-10T16:07:35.828Z,16.85
2022-12-10T16:10:41.452Z,14.57
2022-12-10T16:13:51.996Z,15.23
2022-12-10T16:16:57.368Z,14.77
2022-12-10T16:20:03.404Z,14.68
2022-12-10T16:23:09.561Z,14.25
2022-12-10T16:26:17.967Z,13.48
2022-12-10T16:29:25.619Z,13.73
2022-12-10T16:32:30.882Z,13.95
2022-12-10T16:35:36.103Z,13.80
2022-12-10T16:38:41.548Z,13.73
2022-12-10T16:41:46.910Z,13.75
2022-12-10T16:44:55.139Z,14.65
2022-12-10T16:48:01.027Z,14.65
2022-12-10T16:51:08.398Z,13.13
2022-12-10T16:54:14.912Z,15.73
2022-12-10T16:57:20.333Z,13.32
2022-12-10T17:00:29.279Z,13.63
2022-12-10T17:03:36.351Z,13.65
2022-12-10T17:06:41.528Z,13.02
2022-12-10T17:09:47.075Z,13.98
2022-12-10T17:12:52.336Z,12.82
2022-12-10T17:16:01.305Z,12.20
2022-12-10T17:19:06.730Z,14.52
2022-12-10T17:22:14.410Z,12.75
2022-12-10T17:25:19.905Z,13.07
2022-12-10T17:28:25.828Z,12.43
2022-12-10T17:31:34.140Z,12.48
2022-12-10T17:34:39.585Z,12.60
2022-12-10T17:37:45.299Z,11.65
2022-12-10T17:40:50.368Z,13.52
2022-12-10T17:43:56.131Z,10.20
2022-12-10T17:47:04.027Z,11.98
2022-12-10T17:50:32.217Z,11.70
2022-12-10T17:53:38.183Z,12.32
2022-12-10T17:56:44.950Z,11.85
2022-12-10T17:59:50.268Z,11.60
2022-12-10T18:02:58.275Z,11.20
2022-12-10T18:06:03.463Z,10.35
2022-12-10T18:09:10.557Z,9.68
2022-12-10T18:12:16.246Z,10.77
2022-12-10T18:15:21.691Z,10.50
2022-12-10T18:18:29.599Z,10.40
2022-12-10T18:21:35.133Z,10.40
2022-12-10T18:24:40.382Z,9.18
2022-12-10T18:27:45.876Z,8.30
2022-12-10T18:30:51.466Z,9.05
2022-12-10T18:34:00.905Z,8.68
2022-12-10T18:37:06.268Z,8.15
2022-12-10T18:40:16.529Z,7.78
2022-12-10T18:43:21.739Z,8.45
2022-12-10T18:46:28.659Z,8.73
2022-12-10T18:49:36.407Z,8.52
2022-12-10T18:52:41.845Z,7.43
2022-12-10T18:55:47.198Z,7.82
2022-12-10T18:58:52.965Z,7.53
2022-12-10T19:01:58.166Z,7.93
2022-12-10T19:05:06.729Z,7.38
2022-12-10T19:08:13.611Z,7.35
2022-12-10T19:11:18.961Z,7.05
2022-12-10T19:14:24.454Z,7.47
2022-12-10T19:17:29.745Z,8.00
2022-12-10T19:20:37.785Z,7.43
2022-12-10T19:23:43.588Z,7.80
2022-12-10T19:26:48.981Z,7.30
2022-12-10T19:29:54.423Z,7.80
2022-12-10T19:33:00.133Z,8.02
2022-12-10T19:36:08.005Z,7.00
2022-12-10T19:39:18.603Z,7.43
2022-12-10T19:42:24.400Z,7.38
2022-12-10T19:45:30.310Z,7.25
2022-12-10T19:48:35.855Z,6.63
2022-12-10T19:51:43.643Z,6.63
2022-12-10T19:54:49.223Z,6.88
2022-12-10T19:57:55.022Z,7.15
2022-12-10T20:01:05.387Z,6.68
2022-12-10T20:04:10.857Z,6.38
2022-12-10T20:07:18.868Z,6.40
2022-12-10T20:10:25.273Z,6.82
2022-12-10T20:13:30.611Z,6.28
2022-12-10T20:16:36.157Z,6.55
2022-12-10T20:19:41.434Z,6.45
2022-12-10T20:22:50.133Z,6.18
2022-12-10T20:25:55.678Z,6.20
2022-12-10T20:29:01.685Z,6.88
2022-12-10T20:32:06.993Z,6.05
2022-12-10T20:35:12.626Z,6.15
2022-12-10T20:38:20.715Z,5.95
2022-12-10T20:41:26.844Z,6.53
2022-12-10T20:44:32.136Z,5.40
2022-12-10T20:47:39.924Z,6.30
2022-12-10T20:50:45.247Z,5.10
2022-12-10T20:53:53.339Z,6.13
2022-12-10T20:57:00.178Z,5.05
2022-12-10T21:00:05.546Z,5.50
2022-12-10T21:03:11.356Z,5.20
2022-12-10T21:06:17.729Z,5.63
2022-12-10T21:09:25.771Z,5.03
2022-12-10T21:12:31.179Z,6.10
2022-12-10T21:15:36.802Z,4.85
2022-12-10T21:18:42.276Z,6.53
2022-12-10T21:21:48.444Z,5.47
2022-12-10T21:24:56.244Z,5.05
2022-12-10T21:28:01.868Z,5.05
2022-12-10T21:31:07.154Z,5.35
2022-12-10T21:34:13.024Z,5.38
2022-12-10T21:37:18.541Z,5.53
2022-12-10T21:40:26.568Z,5.13
2022-12-10T21:43:29.183Z,5.32
2022-12-10T21:46:35.005Z,6.30
2022-12-10T21:49:40.596Z,4.57
2022-12-10T21:52:46.580Z,5.07
2022-12-10T21:55:54.659Z,5.50
2022-12-10T21:59:00.451Z,5.15
2022-12-10T22:02:23.903Z,5.40
2022-12-10T22:05:29.550Z,4.55
2022-12-10T22:08:34.972Z,4.55
2022-12-10T22:11:43.027Z,4.90
2022-12-10T22:14:48.949Z,4.63
2022-12-10T22:17:55.065Z,6.30
2022-12-10T22:21:01.066Z,5.03
2022-12-10T22:24:06.684Z,5.65
2022-12-10T22:27:14.321Z,5.20
2022-12-10T22:30:20.035Z,6.10
2022-12-10T22:33:26.028Z,5.88
2022-12-10T22:36:31.238Z,5.90
2022-12-10T22:39:36.358Z,5.70
2022-12-10T22:42:49.404Z,5.63
2022-12-10T22:45:57.083Z,5.28
2022-12-10T22:49:02.501Z,5.90
2022-12-10T22:52:07.699Z,5.40
2022-12-10T22:55:16.042Z,5.47
2022-12-10T22:58:24.196Z,5.47
2022-12-10T23:01:30.160Z,5.72
2022-12-10T23:04:35.572Z,5.32
2022-12-10T23:07:41.579Z,5.97
2022-12-10T23:10:46.855Z,4.93
2022-12-10T23:13:54.717Z,5.65
2022-12-10T23:16:59.895Z,5.60
2022-12-10T23:20:05.149Z,6.10
2022-12-10T23:23:10.673Z,5.63
2022-12-10T23:26:16.359Z,5.10
2022-12-10T23:29:24.260Z,5.90
2022-12-10T23:32:29.697Z,5.93
2022-12-10T23:35:35.074Z,6.13
2022-12-10T23:38:40.986Z,6.80
2022-12-10T23:41:46.407Z,5.93
2022-12-10T23:44:54.248Z,6.03
2022-12-10T23:47:59.577Z,6.40
2022-12-10T23:51:04.843Z,6.32
2022-12-10T23:54:11.281Z,6.10
2022-12-10T23:57:16.622Z,6.28
